sensor_id;sensor_type;location;lat;lon;timestamp;temperature;humidity
22360;DHT22;71759;52.034;4.706;2023-09-07T10:01:00;24.80;93.50
22360;DHT22;71759;52.034;4.706;2023-09-07T10:03:33;24.70;81.90
22360;DHT22;71759;52.034;4.706;2023-09-07T10:06:10;25.00;85.00
22360;DHT22;71759;52.034;4.706;2023-09-07T10:08:36;25.30;75.90
22360;DHT22;71759;52.034;4.706;2023-09-07T10:11:07;25.60;71.30
22360;DHT22;71759;52.034;4.706;2023-09-07T10:13:33;25.90;78.10
22360;DHT22;71759;52.034;4.706;2023-09-07T10:16:03;26.10;77.10
22360;DHT22;71759;52.034;4.706;2023-09-07T10:18:34;26.30;74.40
22360;DHT22;71759;52.034;4.706;2023-09-07T10:21:00;26.40;75.50
22360;DHT22;71759;52.034;4.706;2023-09-07T10:23:44;26.50;70.10
22360;DHT22;71759;52.034;4.706;2023-09-07T10:26:18;26.70;70.90
22360;DHT22;71759;52.034;4.706;2023-09-07T10:28:44;26.70;67.70
22360;DHT22;71759;52.034;4.706;2023-09-07T10:31:18;26.80;64.90
22360;DHT22;71759;52.034;4.706;2023-09-07T10:33:44;27.00;63.80
22360;DHT22;71759;52.034;4.706;2023-09-07T10:36:21;27.10;64.00
22360;DHT22;71759;52.034;4.706;2023-09-07T10:38:47;27.20;60.70
22360;DHT22;71759;52.034;4.706;2023-09-07T10:41:13;27.20;60.70
22360;DHT22;71759;52.034;4.706;2023-09-07T10:43:47;27.10;59.40
22360;DHT22;71759;52.034;4.706;2023-09-07T10:46:13;27.10;57.90
22360;DHT22;71759;52.034;4.706;2023-09-07T10:48:39;27.10;58.70
22360;DHT22;71759;52.034;4.706;2023-09-07T10:51:06;27.20;56.70
22360;DHT22;71759;52.034;4.706;2023-09-07T10:53:32;27.20;57.80
22360;DHT22;71759;52.034;4.706;2023-09-07T10:55:59;27.30;54.70
22360;DHT22;71759;52.034;4.706;2023-09-07T10:58:30;27.30;50.00
22360;DHT22;71759;52.034;4.706;2023-09-07T11:00:55;27.50;50.20
22360;DHT22;71759;52.034;4.706;2023-09-07T11:03:22;27.70;49.00
22360;DHT22;71759;52.034;4.706;2023-09-07T11:05:48;27.90;48.40
22360;DHT22;71759;52.034;4.706;2023-09-07T11:08:14;28.20;46.30
22360;DHT22;71759;52.034;4.706;2023-09-07T11:10:39;28.40;40.00
22360;DHT22;71759;52.034;4.706;2023-09-07T11:13:05;28.70;40.90
22360;DHT22;71759;52.034;4.706;2023-09-07T11:15:32;28.90;39.70
22360;DHT22;71759;52.034;4.706;2023-09-07T11:18:08;28.90;39.70
22360;DHT22;71759;52.034;4.706;2023-09-07T11:20:35;29.00;38.40
22360;DHT22;71759;52.034;4.706;2023-09-07T11:23:03;29.10;37.20
22360;DHT22;71759;52.034;4.706;2023-09-07T11:25:38;29.10;37.50
22360;DHT22;71759;52.034;4.706;2023-09-07T11:28:05;29.20;36.90
22360;DHT22;71759;52.034;4.706;2023-09-07T11:30:34;29.30;38.50
22360;DHT22;71759;52.034;4.706;2023-09-07T11:35:26;29.50;36.00
22360;DHT22;71759;52.034;4.706;2023-09-07T11:37:52;29.70;35.30
22360;DHT22;71759;52.034;4.706;2023-09-07T11:40:18;30.10;34.40
22360;DHT22;71759;52.034;4.706;2023-09-07T11:42:43;30.40;31.00
22360;DHT22;71759;52.034;4.706;2023-09-07T11:45:09;30.90;29.60
22360;DHT22;71759;52.034;4.706;2023-09-07T11:47:35;31.30;28.90
22360;DHT22;71759;52.034;4.706;2023-09-07T11:50:01;31.80;28.80
22360;DHT22;71759;52.034;4.706;2023-09-07T11:52:26;32.30;27.60
22360;DHT22;71759;52.034;4.706;2023-09-07T11:54:52;32.80;26.10
22360;DHT22;71759;52.034;4.706;2023-09-07T11:57:17;33.40;25.80
22360;DHT22;71759;52.034;4.706;2023-09-07T11:59:43;34.00;23.20
22360;DHT22;71759;52.034;4.706;2023-09-07T12:02:08;34.60;23.10
22360;DHT22;71759;52.034;4.706;2023-09-07T12:04:37;35.40;22.20
22360;DHT22;71759;52.034;4.706;2023-09-07T12:07:04;35.90;19.40
22360;DHT22;71759;52.034;4.706;2023-09-07T12:09:29;36.50;19.20
22360;DHT22;71759;52.034;4.706;2023-09-07T12:11:55;37.40;18.70
22360;DHT22;71759;52.034;4.706;2023-09-07T12:14:20;38.10;18.30
22360;DHT22;71759;52.034;4.706;2023-09-07T12:16:46;38.00;18.00
22360;DHT22;71759;52.034;4.706;2023-09-07T12:19:11;37.90;17.90
22360;DHT22;71759;52.034;4.706;2023-09-07T12:21:37;38.00;17.70
22360;DHT22;71759;52.034;4.706;2023-09-07T12:24:03;38.20;17.50
22360;DHT22;71759;52.034;4.706;2023-09-07T12:26:28;38.80;17.10
22360;DHT22;71759;52.034;4.706;2023-09-07T12:28:53;38.70;16.10
22360;DHT22;71759;52.034;4.706;2023-09-07T12:31:19;38.60;16.80
22360;DHT22;71759;52.034;4.706;2023-09-07T12:33:44;38.70;15.90
22360;DHT22;71759;52.034;4.706;2023-09-07T12:36:10;38.90;16.50
22360;DHT22;71759;52.034;4.706;2023-09-07T12:38:37;39.30;16.20
22360;DHT22;71759;52.034;4.706;2023-09-07T12:41:03;40.40;13.40
22360;DHT22;71759;52.034;4.706;2023-09-07T12:43:28;41.10;13.30
22360;DHT22;71759;52.034;4.706;2023-09-07T12:45:54;41.60;12.60
22360;DHT22;71759;52.034;4.706;2023-09-07T12:48:20;42.10;12.00
22360;DHT22;71759;52.034;4.706;2023-09-07T12:50:45;41.80;13.00
22360;DHT22;71759;52.034;4.706;2023-09-07T12:53:11;41.80;12.90
22360;DHT22;71759;52.034;4.706;2023-09-07T12:55:37;41.50;12.10
22360;DHT22;71759;52.034;4.706;2023-09-07T12:58:02;41.30;11.50
22360;DHT22;71759;52.034;4.706;2023-09-07T13:00:28;41.30;12.20
22360;DHT22;71759;52.034;4.706;2023-09-07T13:02:56;41.30;11.40
22360;DHT22;71759;52.034;4.706;2023-09-07T13:05:22;41.10;12.50
22360;DHT22;71759;52.034;4.706;2023-09-07T13:07:47;41.20;12.30
22360;DHT22;71759;52.034;4.706;2023-09-07T13:10:13;41.10;12.40
22360;DHT22;71759;52.034;4.706;2023-09-07T13:12:39;40.70;11.10
22360;DHT22;71759;52.034;4.706;2023-09-07T13:15:05;40.20;11.90
22360;DHT22;71759;52.034;4.706;2023-09-07T13:17:31;40.20;12.70
22360;DHT22;71759;52.034;4.706;2023-09-07T13:19:56;40.20;13.40
22360;DHT22;71759;52.034;4.706;2023-09-07T13:22:22;40.40;13.10
22360;DHT22;71759;52.034;4.706;2023-09-07T13:24:47;40.30;13.40
22360;DHT22;71759;52.034;4.706;2023-09-07T13:27:13;40.20;13.50
22360;DHT22;71759;52.034;4.706;2023-09-07T13:29:38;40.20;13.50
22360;DHT22;71759;52.034;4.706;2023-09-07T13:32:04;39.80;13.60
22360;DHT22;71759;52.034;4.706;2023-09-07T13:34:30;39.30;13.60
22360;DHT22;71759;52.034;4.706;2023-09-07T13:36:55;38.40;14.30
22360;DHT22;71759;52.034;4.706;2023-09-07T13:39:21;37.50;15.10
22360;DHT22;71759;52.034;4.706;2023-09-07T13:41:47;36.50;15.40
22360;DHT22;71759;52.034;4.706;2023-09-07T13:44:14;35.80;17.00
22360;DHT22;71759;52.034;4.706;2023-09-07T13:46:40;35.10;18.20
22360;DHT22;71759;52.034;4.706;2023-09-07T13:49:06;34.40;19.10
22360;DHT22;71759;52.034;4.706;2023-09-07T13:51:31;33.80;20.10
22360;DHT22;71759;52.034;4.706;2023-09-07T13:54:04;33.20;20.60
22360;DHT22;71759;52.034;4.706;2023-09-07T13:56:29;32.70;21.20
22360;DHT22;71759;52.034;4.706;2023-09-07T13:58:55;32.20;22.00
22360;DHT22;71759;52.034;4.706;2023-09-07T14:01:20;31.80;21.00
22360;DHT22;71759;52.034;4.706;2023-09-07T14:03:46;31.50;22.30
22360;DHT22;71759;52.034;4.706;2023-09-07T14:06:12;31.20;23.00
22360;DHT22;71759;52.034;4.706;2023-09-07T14:08:37;31.00;22.40
22360;DHT22;71759;52.034;4.706;2023-09-07T14:11:03;30.80;23.50
22360;DHT22;71759;52.034;4.706;2023-09-07T14:13:28;30.70;23.70
22360;DHT22;71759;52.034;4.706;2023-09-07T14:15:54;30.50;23.40
22360;DHT22;71759;52.034;4.706;2023-09-07T14:18:19;30.30;24.50
22360;DHT22;71759;52.034;4.706;2023-09-07T14:20:45;30.20;24.10
22360;DHT22;71759;52.034;4.706;2023-09-07T14:23:10;30.10;24.30
22360;DHT22;71759;52.034;4.706;2023-09-07T14:25:36;30.10;25.30
22360;DHT22;71759;52.034;4.706;2023-09-07T14:28:03;30.00;24.70
22360;DHT22;71759;52.034;4.706;2023-09-07T14:30:28;29.80;25.20
22360;DHT22;71759;52.034;4.706;2023-09-07T14:32:54;29.80;24.10
22360;DHT22;71759;52.034;4.706;2023-09-07T14:35:20;29.50;24.50
22360;DHT22;71759;52.034;4.706;2023-09-07T14:37:45;29.50;25.80
22360;DHT22;71759;52.034;4.706;2023-09-07T14:40:11;29.50;26.20
22360;DHT22;71759;52.034;4.706;2023-09-07T14:42:38;29.40;27.00
22360;DHT22;71759;52.034;4.706;2023-09-07T14:45:04;29.40;27.30
22360;DHT22;71759;52.034;4.706;2023-09-07T14:47:30;29.30;26.90
22360;DHT22;71759;52.034;4.706;2023-09-07T14:49:56;29.20;26.40
22360;DHT22;71759;52.034;4.706;2023-09-07T14:52:22;29.30;27.40
22360;DHT22;71759;52.034;4.706;2023-09-07T14:54:50;29.30;26.10
22360;DHT22;71759;52.034;4.706;2023-09-07T14:57:15;29.10;26.50
22360;DHT22;71759;52.034;4.706;2023-09-07T14:59:41;29.10;27.40
22360;DHT22;71759;52.034;4.706;2023-09-07T15:02:06;29.10;25.20
22360;DHT22;71759;52.034;4.706;2023-09-07T15:04:33;29.10;25.80
22360;DHT22;71759;52.034;4.706;2023-09-07T15:06:58;29.10;25.00
22360;DHT22;71759;52.034;4.706;2023-09-07T15:09:24;29.00;25.80
22360;DHT22;71759;52.034;4.706;2023-09-07T15:11:50;29.10;26.10
22360;DHT22;71759;52.034;4.706;2023-09-07T15:14:16;29.00;25.80
22360;DHT22;71759;52.034;4.706;2023-09-07T15:16:42;29.00;25.40
22360;DHT22;71759;52.034;4.706;2023-09-07T15:19:07;29.00;25.60
22360;DHT22;71759;52.034;4.706;2023-09-07T15:21:33;29.00;26.00
22360;DHT22;71759;52.034;4.706;2023-09-07T15:23:59;29.00;26.10
22360;DHT22;71759;52.034;4.706;2023-09-07T15:26:24;29.00;26.30
22360;DHT22;71759;52.034;4.706;2023-09-07T15:28:50;28.90;26.40
22360;DHT22;71759;52.034;4.706;2023-09-07T15:31:15;28.90;27.00
22360;DHT22;71759;52.034;4.706;2023-09-07T15:33:41;28.90;26.40
22360;DHT22;71759;52.034;4.706;2023-09-07T15:36:06;28.90;27.90
22360;DHT22;71759;52.034;4.706;2023-09-07T15:38:33;28.90;28.00
22360;DHT22;71759;52.034;4.706;2023-09-07T15:40:59;28.90;27.80
22360;DHT22;71759;52.034;4.706;2023-09-07T15:43:30;28.90;27.60
22360;DHT22;71759;52.034;4.706;2023-09-07T15:45:56;28.80;28.50
22360;DHT22;71759;52.034;4.706;2023-09-07T15:48:21;28.80;29.40
22360;DHT22;71759;52.034;4.706;2023-09-07T15:50:47;28.70;29.50
22360;DHT22;71759;52.034;4.706;2023-09-07T15:53:12;28.60;29.80
22360;DHT22;71759;52.034;4.706;2023-09-07T15:55:38;28.60;30.20
22360;DHT22;71759;52.034;4.706;2023-09-07T15:58:05;28.50;30.50
22360;DHT22;71759;52.034;4.706;2023-09-07T16:00:30;28.50;31.80
22360;DHT22;71759;52.034;4.706;2023-09-07T16:02:56;28.50;31.90
22360;DHT22;71759;52.034;4.706;2023-09-07T16:05:21;28.40;31.90
22360;DHT22;71759;52.034;4.706;2023-09-07T16:07:51;28.40;32.10
22360;DHT22;71759;52.034;4.706;2023-09-07T16:10:16;28.30;32.40
22360;DHT22;71759;52.034;4.706;2023-09-07T16:12:42;28.30;32.40
22360;DHT22;71759;52.034;4.706;2023-09-07T16:15:08;28.30;33.30
22360;DHT22;71759;52.034;4.706;2023-09-07T16:17:33;28.20;33.20
22360;DHT22;71759;52.034;4.706;2023-09-07T16:19:59;28.20;33.20
22360;DHT22;71759;52.034;4.706;2023-09-07T16:22:24;28.10;34.50
22360;DHT22;71759;52.034;4.706;2023-09-07T16:24:50;28.10;34.30
22360;DHT22;71759;52.034;4.706;2023-09-07T16:27:15;28.10;34.40
22360;DHT22;71759;52.034;4.706;2023-09-07T16:29:41;28.00;34.50
22360;DHT22;71759;52.034;4.706;2023-09-07T16:32:08;28.00;34.90
22360;DHT22;71759;52.034;4.706;2023-09-07T16:34:34;27.90;34.80
22360;DHT22;71759;52.034;4.706;2023-09-07T16:36:59;27.90;35.10
22360;DHT22;71759;52.034;4.706;2023-09-07T16:39:25;27.80;36.30
22360;DHT22;71759;52.034;4.706;2023-09-07T16:41:50;27.80;35.60
22360;DHT22;71759;52.034;4.706;2023-09-07T16:44:16;27.80;36.60
22360;DHT22;71759;52.034;4.706;2023-09-07T16:46:41;27.60;36.90
22360;DHT22;71759;52.034;4.706;2023-09-07T16:49:08;27.60;37.50
22360;DHT22;71759;52.034;4.706;2023-09-07T16:51:34;27.60;38.70
22360;DHT22;71759;52.034;4.706;2023-09-07T16:53:59;27.60;39.20
22360;DHT22;71759;52.034;4.706;2023-09-07T16:56:25;27.50;39.30
22360;DHT22;71759;52.034;4.706;2023-09-07T16:58:53;27.40;40.10
22360;DHT22;71759;52.034;4.706;2023-09-07T17:01:19;27.40;42.40
22360;DHT22;71759;52.034;4.706;2023-09-07T17:03:45;27.40;42.40
22360;DHT22;71759;52.034;4.706;2023-09-07T17:06:10;27.30;42.80
22360;DHT22;71759;52.034;4.706;2023-09-07T17:08:36;27.30;44.30
22360;DHT22;71759;52.034;4.706;2023-09-07T17:11:01;27.20;44.20
22360;DHT22;71759;52.034;4.706;2023-09-07T17:13:27;27.20;44.10
22360;DHT22;71759;52.034;4.706;2023-09-07T17:15:53;27.10;44.10
22360;DHT22;71759;52.034;4.706;2023-09-07T17:18:18;27.10;44.60
22360;DHT22;71759;52.034;4.706;2023-09-07T17:20:44;27.10;46.00
22360;DHT22;71759;52.034;4.706;2023-09-07T17:23:09;27.10;44.80
22360;DHT22;71759;52.034;4.706;2023-09-07T17:25:36;27.00;45.60
22360;DHT22;71759;52.034;4.706;2023-09-07T17:28:02;26.90;46.30
22360;DHT22;71759;52.034;4.706;2023-09-07T17:30:28;26.90;46.30
22360;DHT22;71759;52.034;4.706;2023-09-07T17:32:54;26.90;47.20
22360;DHT22;71759;52.034;4.706;2023-09-07T17:35:22;26.80;47.90
22360;DHT22;71759;52.034;4.706;2023-09-07T17:37:48;26.70;47.70
22360;DHT22;71759;52.034;4.706;2023-09-07T17:40:14;26.70;48.20
22360;DHT22;71759;52.034;4.706;2023-09-07T17:42:40;26.60;48.20
22360;DHT22;71759;52.034;4.706;2023-09-07T17:45:06;26.60;49.30
22360;DHT22;71759;52.034;4.706;2023-09-07T17:47:32;26.50;51.20
22360;DHT22;71759;52.034;4.706;2023-09-07T17:49:57;26.50;50.70
22360;DHT22;71759;52.034;4.706;2023-09-07T17:52:23;26.40;50.90
22360;DHT22;71759;52.034;4.706;2023-09-07T17:54:49;26.40;51.50
22360;DHT22;71759;52.034;4.706;2023-09-07T17:57:15;26.20;51.60
22360;DHT22;71759;52.034;4.706;2023-09-07T17:59:41;26.20;53.40
22360;DHT22;71759;52.034;4.706;2023-09-07T18:02:21;26.20;54.70
22360;DHT22;71759;52.034;4.706;2023-09-07T18:04:49;26.10;55.30
22360;DHT22;71759;52.034;4.706;2023-09-07T18:07:16;26.00;57.40
22360;DHT22;71759;52.034;4.706;2023-09-07T18:09:41;25.90;58.60
22360;DHT22;71759;52.034;4.706;2023-09-07T18:12:08;25.90;59.60
22360;DHT22;71759;52.034;4.706;2023-09-07T18:14:33;25.80;60.30
22360;DHT22;71759;52.034;4.706;2023-09-07T18:16:59;25.70;61.20
22360;DHT22;71759;52.034;4.706;2023-09-07T18:19:24;25.60;62.70
22360;DHT22;71759;52.034;4.706;2023-09-07T18:21:50;25.50;65.00
22360;DHT22;71759;52.034;4.706;2023-09-07T18:24:15;25.40;67.00
22360;DHT22;71759;52.034;4.706;2023-09-07T18:26:41;25.50;68.00
22360;DHT22;71759;52.034;4.706;2023-09-07T18:29:11;25.40;68.10
22360;DHT22;71759;52.034;4.706;2023-09-07T18:31:37;25.50;68.20
22360;DHT22;71759;52.034;4.706;2023-09-07T18:34:02;25.50;68.60
22360;DHT22;71759;52.034;4.706;2023-09-07T18:36:28;25.50;68.90
22360;DHT22;71759;52.034;4.706;2023-09-07T18:38:54;25.50;69.40
22360;DHT22;71759;52.034;4.706;2023-09-07T18:41:19;25.50;69.80
22360;DHT22;71759;52.034;4.706;2023-09-07T18:43:45;25.50;69.80
22360;DHT22;71759;52.034;4.706;2023-09-07T18:46:10;25.40;70.20
22360;DHT22;71759;52.034;4.706;2023-09-07T18:48:36;25.40;70.20
22360;DHT22;71759;52.034;4.706;2023-09-07T18:51:06;25.40;70.80
22360;DHT22;71759;52.034;4.706;2023-09-07T18:53:32;25.40;70.30
22360;DHT22;71759;52.034;4.706;2023-09-07T18:56:01;25.30;70.30
22360;DHT22;71759;52.034;4.706;2023-09-07T18:58:27;25.30;70.70
22360;DHT22;71759;52.034;4.706;2023-09-07T19:00:53;25.30;70.20
22360;DHT22;71759;52.034;4.706;2023-09-07T19:03:18;25.20;70.30
22360;DHT22;71759;52.034;4.706;2023-09-07T19:05:44;25.20;70.40
22360;DHT22;71759;52.034;4.706;2023-09-07T19:08:09;25.20;71.10
22360;DHT22;71759;52.034;4.706;2023-09-07T19:10:36;25.10;71.60
22360;DHT22;71759;52.034;4.706;2023-09-07T19:13:02;25.10;72.40
22360;DHT22;71759;52.034;4.706;2023-09-07T19:15:27;25.00;74.70
22360;DHT22;71759;52.034;4.706;2023-09-07T19:17:53;25.00;76.20
22360;DHT22;71759;52.034;4.706;2023-09-07T19:20:18;24.90;77.10
22360;DHT22;71759;52.034;4.706;2023-09-07T19:22:44;24.80;77.50
22360;DHT22;71759;52.034;4.706;2023-09-07T19:25:11;24.80;78.20
22360;DHT22;71759;52.034;4.706;2023-09-07T19:27:36;24.70;78.10
22360;DHT22;71759;52.034;4.706;2023-09-07T19:30:04;24.70;78.10
22360;DHT22;71759;52.034;4.706;2023-09-07T19:32:30;24.70;81.20
22360;DHT22;71759;52.034;4.706;2023-09-07T19:34:56;24.60;80.60
22360;DHT22;71759;52.034;4.706;2023-09-07T19:37:21;24.60;79.50
22360;DHT22;71759;52.034;4.706;2023-09-07T19:39:47;24.50;80.10
22360;DHT22;71759;52.034;4.706;2023-09-07T19:42:12;24.50;79.30
22360;DHT22;71759;52.034;4.706;2023-09-07T19:44:38;24.50;81.00
22360;DHT22;71759;52.034;4.706;2023-09-07T19:47:04;24.40;80.30
22360;DHT22;71759;52.034;4.706;2023-09-07T19:49:29;24.40;80.10
22360;DHT22;71759;52.034;4.706;2023-09-07T19:51:55;24.30;80.10
22360;DHT22;71759;52.034;4.706;2023-09-07T19:54:20;24.30;81.30
22360;DHT22;71759;52.034;4.706;2023-09-07T19:56:46;24.30;81.70
22360;DHT22;71759;52.034;4.706;2023-09-07T19:59:11;24.30;83.40
22360;DHT22;71759;52.034;4.706;2023-09-07T20:01:54;24.20;84.80
22360;DHT22;71759;52.034;4.706;2023-09-07T20:04:20;24.10;86.10
22360;DHT22;71759;52.034;4.706;2023-09-07T20:06:46;24.10;88.30
22360;DHT22;71759;52.034;4.706;2023-09-07T20:09:12;24.10;88.50
22360;DHT22;71759;52.034;4.706;2023-09-07T20:11:39;24.10;88.40
22360;DHT22;71759;52.034;4.706;2023-09-07T20:14:05;24.00;89.00
22360;DHT22;71759;52.034;4.706;2023-09-07T20:16:30;24.00;89.40
22360;DHT22;71759;52.034;4.706;2023-09-07T20:18:56;24.00;89.10
22360;DHT22;71759;52.034;4.706;2023-09-07T20:21:21;24.00;90.10
22360;DHT22;71759;52.034;4.706;2023-09-07T20:23:47;23.90;90.50
22360;DHT22;71759;52.034;4.706;2023-09-07T20:26:13;23.90;90.60
22360;DHT22;71759;52.034;4.706;2023-09-07T20:28:38;23.90;90.60
22360;DHT22;71759;52.034;4.706;2023-09-07T20:31:07;23.80;91.30
22360;DHT22;71759;52.034;4.706;2023-09-07T20:33:34;23.80;91.80
22360;DHT22;71759;52.034;4.706;2023-09-07T20:36:00;23.70;91.70
22360;DHT22;71759;52.034;4.706;2023-09-07T20:38:27;23.70;92.10
22360;DHT22;71759;52.034;4.706;2023-09-07T20:40:52;23.70;92.30
22360;DHT22;71759;52.034;4.706;2023-09-07T20:43:18;23.70;92.60
22360;DHT22;71759;52.034;4.706;2023-09-07T20:45:49;23.60;94.10
22360;DHT22;71759;52.034;4.706;2023-09-07T20:48:15;23.60;94.70
22360;DHT22;71759;52.034;4.706;2023-09-07T20:50:42;23.50;95.30
22360;DHT22;71759;52.034;4.706;2023-09-07T20:53:08;23.40;96.30
22360;DHT22;71759;52.034;4.706;2023-09-07T20:55:34;23.40;96.90
22360;DHT22;71759;52.034;4.706;2023-09-07T20:58:00;23.40;97.30
22360;DHT22;71759;52.034;4.706;2023-09-07T21:00:26;23.30;97.10
22360;DHT22;71759;52.034;4.706;2023-09-07T21:02:51;23.20;97.70
22360;DHT22;71759;52.034;4.706;2023-09-07T21:05:17;23.20;98.30
22360;DHT22;71759;52.034;4.706;2023-09-07T21:07:43;23.20;99.80
22360;DHT22;71759;52.034;4.706;2023-09-07T21:10:09;23.30;99.10
22360;DHT22;71759;52.034;4.706;2023-09-07T21:12:40;23.20;99.10
22360;DHT22;71759;52.034;4.706;2023-09-07T21:15:06;23.20;99.30
22360;DHT22;71759;52.034;4.706;2023-09-07T21:17:33;23.20;99.10
22360;DHT22;71759;52.034;4.706;2023-09-07T21:19:58;23.10;99.50
22360;DHT22;71759;52.034;4.706;2023-09-07T21:22:25;23.10;99.90
22360;DHT22;71759;52.034;4.706;2023-09-07T21:24:51;23.00;99.90
22360;DHT22;71759;52.034;4.706;2023-09-07T21:27:17;23.00;99.90
22360;DHT22;71759;52.034;4.706;2023-09-07T21:29:43;23.00;99.90
22360;DHT22;71759;52.034;4.706;2023-09-07T21:32:08;23.00;99.90
22360;DHT22;71759;52.034;4.706;2023-09-07T21:34:34;22.90;99.90
22360;DHT22;71759;52.034;4.706;2023-09-07T21:36:59;23.00;99.90
22360;DHT22;71759;52.034;4.706;2023-09-07T21:39:25;22.90;99.90
22360;DHT22;71759;52.034;4.706;2023-09-07T21:41:52;22.90;99.90
22360;DHT22;71759;52.034;4.706;2023-09-07T21:44:19;22.90;99.90
22360;DHT22;71759;52.034;4.706;2023-09-07T21:46:45;22.80;99.90
22360;DHT22;71759;52.034;4.706;2023-09-07T21:49:11;22.80;99.90
22360;DHT22;71759;52.034;4.706;2023-09-07T21:51:37;22.80;99.90
22360;DHT22;71759;52.034;4.706;2023-09-07T21:54:03;22.70;99.90
22360;DHT22;71759;52.034;4.706;2023-09-07T21:56:29;22.70;99.90
22360;DHT22;71759;52.034;4.706;2023-09-07T21:58:55;22.70;99.90
22360;DHT22;71759;52.034;4.706;2023-09-07T22:01:20;22.70;99.90
22360;DHT22;71759;52.034;4.706;2023-09-07T22:03:46;22.60;99.90
22360;DHT22;71759;52.034;4.706;2023-09-07T22:06:11;22.70;99.90
22360;DHT22;71759;52.034;4.706;2023-09-07T22:08:37;22.60;99.90
22360;DHT22;71759;52.034;4.706;2023-09-07T22:11:02;22.60;99.90
22360;DHT22;71759;52.034;4.706;2023-09-07T22:13:28;22.50;99.90
22360;DHT22;71759;52.034;4.706;2023-09-07T22:15:54;22.50;99.90
22360;DHT22;71759;52.034;4.706;2023-09-07T22:18:19;22.50;99.90
22360;DHT22;71759;52.034;4.706;2023-09-07T22:20:45;22.50;99.90
22360;DHT22;71759;52.034;4.706;2023-09-07T22:23:10;22.40;99.90
22360;DHT22;71759;52.034;4.706;2023-09-07T22:25:36;22.40;99.90
22360;DHT22;71759;52.034;4.706;2023-09-07T22:28:01;22.40;99.90
22360;DHT22;71759;52.034;4.706;2023-09-07T22:30:28;22.30;99.90
22360;DHT22;71759;52.034;4.706;2023-09-07T22:32:53;22.30;99.90
22360;DHT22;71759;52.034;4.706;2023-09-07T22:35:19;22.30;99.90
22360;DHT22;71759;52.034;4.706;2023-09-07T22:37:44;22.30;99.90
22360;DHT22;71759;52.034;4.706;2023-09-07T22:40:10;22.30;99.90
22360;DHT22;71759;52.034;4.706;2023-09-07T22:42:44;22.20;99.90
22360;DHT22;71759;52.034;4.706;2023-09-07T22:45:11;22.20;99.90
22360;DHT22;71759;52.034;4.706;2023-09-07T22:47:37;22.10;99.90
22360;DHT22;71759;52.034;4.706;2023-09-07T22:50:03;22.10;99.90
22360;DHT22;71759;52.034;4.706;2023-09-07T22:52:29;22.10;99.90
22360;DHT22;71759;52.034;4.706;2023-09-07T22:54:56;22.00;99.90
22360;DHT22;71759;52.034;4.706;2023-09-07T22:57:21;22.00;99.90
22360;DHT22;71759;52.034;4.706;2023-09-07T22:59:47;21.90;99.90
22360;DHT22;71759;52.034;4.706;2023-09-07T23:02:12;22.00;99.90
22360;DHT22;71759;52.034;4.706;2023-09-07T23:04:38;22.00;99.90
22360;DHT22;71759;52.034;4.706;2023-09-07T23:07:03;22.00;99.90
22360;DHT22;71759;52.034;4.706;2023-09-07T23:09:29;21.90;99.90
22360;DHT22;71759;52.034;4.706;2023-09-07T23:11:56;21.90;99.90
22360;DHT22;71759;52.034;4.706;2023-09-07T23:14:22;21.90;99.90
22360;DHT22;71759;52.034;4.706;2023-09-07T23:16:48;22.00;99.90
22360;DHT22;71759;52.034;4.706;2023-09-07T23:19:17;21.90;99.90
22360;DHT22;71759;52.034;4.706;2023-09-07T23:21:43;21.80;99.90
22360;DHT22;71759;52.034;4.706;2023-09-07T23:24:10;21.80;99.90
22360;DHT22;71759;52.034;4.706;2023-09-07T23:26:36;21.80;99.90
22360;DHT22;71759;52.034;4.706;2023-09-07T23:29:01;21.70;99.90
22360;DHT22;71759;52.034;4.706;2023-09-07T23:31:27;21.80;99.90
22360;DHT22;71759;52.034;4.706;2023-09-07T23:33:53;21.70;99.90
22360;DHT22;71759;52.034;4.706;2023-09-07T23:36:18;21.70;99.90
22360;DHT22;71759;52.034;4.706;2023-09-07T23:38:44;21.70;99.90
22360;DHT22;71759;52.034;4.706;2023-09-07T23:41:09;21.70;99.90
22360;DHT22;71759;52.034;4.706;2023-09-07T23:43:35;21.70;99.90
22360;DHT22;71759;52.034;4.706;2023-09-07T23:46:00;21.70;99.90
22360;DHT22;71759;52.034;4.706;2023-09-07T23:48:26;21.60;99.90
22360;DHT22;71759;52.034;4.706;2023-09-07T23:50:51;21.60;99.90
22360;DHT22;71759;52.034;4.706;2023-09-07T23:53:17;21.60;99.90
22360;DHT22;71759;52.034;4.706;2023-09-07T23:55:44;21.50;99.90
22360;DHT22;71759;52.034;4.706;2023-09-07T23:58:10;21.50;99.90
